createdAt,value
2024-02-26T00:01:59.339Z,100737.91
2024-02-26T00:04:46.214Z,100739.78
2024-02-26T00:07:33.393Z,100746.66
2024-02-26T00:10:20.196Z,100742.41
2024-02-26T00:13:06.994Z,100758.00
2024-02-26T00:15:53.843Z,100753.69
2024-02-26T00:18:40.772Z,100755.41
2024-02-26T00:21:27.700Z,100764.13
2024-02-26T00:24:14.756Z,100746.06
2024-02-26T00:27:01.652Z,100769.38
2024-02-26T00:29:48.481Z,100766.75
2024-02-26T00:32:23.702Z,100769.38
2024-02-26T00:34:51.771Z,100766.75
2024-02-26T00:37:38.705Z,100749.41
2024-02-26T00:40:26.073Z,100758.88
2024-02-26T00:43:12.881Z,100760.63
2024-02-26T00:45:59.729Z,100765.88
2024-02-26T00:48:46.692Z,100755.44
2024-02-26T00:51:33.815Z,100764.94
2024-02-26T00:54:20.835Z,100760.56
2024-02-26T00:57:07.726Z,100764.94
2024-02-26T00:59:54.570Z,100766.72
2024-02-26T01:02:41.653Z,100770.19
2024-02-26T01:05:32.667Z,100770.19
2024-02-26T01:08:19.561Z,100778.09
2024-02-26T01:11:06.509Z,100777.19
2024-02-26T01:13:53.448Z,100784.22
2024-02-26T01:16:40.542Z,100783.31
2024-02-26T01:19:27.599Z,100771.97
2024-02-26T01:22:14.589Z,100765.00
2024-02-26T01:25:01.474Z,100778.97
2024-02-26T01:27:48.312Z,100775.41
2024-02-26T01:30:35.296Z,100766.69
2024-02-26T01:33:22.421Z,100771.06
2024-02-26T01:36:09.335Z,100785.09
2024-02-26T01:38:56.259Z,100780.72
2024-02-26T01:41:43.262Z,100779.88
2024-02-26T01:44:33.639Z,100790.34
2024-02-26T01:47:21.507Z,100778.16
2024-02-26T01:50:08.575Z,100778.09
2024-02-26T01:52:56.138Z,100772.81
2024-02-26T01:55:45.264Z,100779.88
2024-02-26T01:58:32.710Z,100780.72
2024-02-26T02:01:20.567Z,100785.13
2024-02-26T02:04:07.501Z,100779.88
2024-02-26T02:06:54.435Z,100773.78
2024-02-26T02:09:41.688Z,100781.66
2024-02-26T02:12:29.401Z,100788.69
2024-02-26T02:15:16.274Z,100785.22
2024-02-26T02:18:03.374Z,100780.88
2024-02-26T02:20:54.322Z,100772.09
2024-02-26T02:23:41.332Z,100768.63
2024-02-26T02:26:28.339Z,100772.13
2024-02-26T02:29:15.249Z,100773.94
2024-02-26T02:32:02.659Z,100774.84
2024-02-26T02:34:50.855Z,100776.56
2024-02-26T02:37:38.032Z,100773.97
2024-02-26T02:40:25.470Z,100769.59
2024-02-26T02:43:12.354Z,100780.94
2024-02-26T02:45:59.181Z,100784.53
2024-02-26T02:48:46.315Z,100787.16
2024-02-26T02:51:33.224Z,100786.31
2024-02-26T02:54:20.109Z,100791.53
2024-02-26T02:57:07.151Z,100788.94
2024-02-26T02:59:54.028Z,100789.81
2024-02-26T03:02:40.962Z,100796.84
2024-02-26T03:05:28.317Z,100797.75
2024-02-26T03:08:15.222Z,100791.63
2024-02-26T03:11:02.090Z,100797.88
2024-02-26T03:13:49.006Z,100807.44
2024-02-26T03:16:35.962Z,100801.25
2024-02-26T03:19:23.180Z,100809.19
2024-02-26T03:22:10.469Z,100811.81
2024-02-26T03:24:57.469Z,100819.88
2024-02-26T03:27:44.384Z,100828.56
2024-02-26T03:30:31.567Z,100827.69
2024-02-26T03:33:18.483Z,100826.88
2024-02-26T03:36:05.412Z,100837.34
2024-02-26T03:38:52.339Z,100836.47
2024-02-26T03:41:39.188Z,100838.28
2024-02-26T03:44:25.990Z,100829.53
2024-02-26T03:47:12.837Z,100833.94
2024-02-26T03:49:59.658Z,100833.13
2024-02-26T03:52:46.476Z,100839.22
2024-02-26T03:55:33.367Z,100839.25
2024-02-26T03:58:20.196Z,100832.28
2024-02-26T04:01:04.901Z,100825.31
2024-02-26T04:03:51.806Z,100834.94
2024-02-26T04:06:41.569Z,100834.06
2024-02-26T04:09:28.522Z,100840.25
2024-02-26T04:12:15.562Z,100835.03
2024-02-26T04:15:02.550Z,100838.53
2024-02-26T04:17:49.447Z,100840.31
2024-02-26T04:20:36.872Z,100846.44
2024-02-26T04:23:25.258Z,100845.66
2024-02-26T04:26:12.129Z,100852.66
2024-02-26T04:28:58.921Z,100866.72
2024-02-26T04:31:45.887Z,100861.56
2024-02-26T04:34:32.847Z,100869.38
2024-02-26T04:37:19.740Z,100871.16
2024-02-26T04:40:06.626Z,100862.59
2024-02-26T04:42:53.447Z,100863.34
2024-02-26T04:45:40.325Z,100884.34
2024-02-26T04:48:27.633Z,100868.72
2024-02-26T04:51:14.693Z,100889.66
2024-02-26T04:54:01.646Z,100889.66
2024-02-26T04:56:48.524Z,100894.94
2024-02-26T04:59:35.374Z,100902.84
2024-02-26T05:02:22.286Z,100899.41
2024-02-26T05:05:09.219Z,100899.34
2024-02-26T05:08:01.812Z,100903.72
2024-02-26T05:10:48.693Z,100916.03
2024-02-26T05:13:35.582Z,100913.44
2024-02-26T05:16:22.461Z,100908.28
2024-02-26T05:19:09.457Z,100925.66
2024-02-26T05:21:56.318Z,100927.41
2024-02-26T05:24:43.106Z,100938.84
2024-02-26T05:27:31.264Z,100937.09
2024-02-26T05:30:18.228Z,100932.72
2024-02-26T05:33:05.143Z,100929.31
2024-02-26T05:35:52.240Z,100925.78
2024-02-26T05:38:39.095Z,100936.25
2024-02-26T05:41:25.975Z,100938.91
2024-02-26T05:44:13.685Z,100937.19
2024-02-26T05:47:00.604Z,100944.19
2024-02-26T05:49:47.506Z,100947.69
2024-02-26T05:52:34.396Z,100942.47
2024-02-26T05:55:21.213Z,100949.47
2024-02-26T05:58:08.254Z,100941.69
2024-02-26T06:00:55.132Z,100945.16
2024-02-26T06:03:42.235Z,100940.81
2024-02-26T06:06:29.184Z,100927.94
2024-02-26T06:09:16.206Z,100940.06
2024-02-26T06:12:03.200Z,100937.56
2024-02-26T06:14:50.112Z,100947.03
2024-02-26T06:17:37.013Z,100943.59
2024-02-26T06:20:24.008Z,100951.50
2024-02-26T06:23:12.163Z,100939.41
2024-02-26T06:25:59.058Z,100948.06
2024-02-26T06:28:45.878Z,100951.59
2024-02-26T06:31:32.727Z,100947.28
2024-02-26T06:34:19.700Z,100948.19
2024-02-26T06:37:06.776Z,100956.13
2024-02-26T06:39:34.120Z,100945.69
2024-02-26T06:42:04.178Z,100951.75
2024-02-26T06:44:51.012Z,100950.03
2024-02-26T06:47:38.282Z,100933.69
2024-02-26T06:50:25.459Z,100960.56
2024-02-26T06:53:12.293Z,100966.69
2024-02-26T06:55:59.126Z,100961.44
2024-02-26T06:58:45.938Z,100960.59
2024-02-26T07:01:34.033Z,100963.19
2024-02-26T07:04:21.107Z,100967.59
2024-02-26T07:07:08.608Z,100980.69
2024-02-26T07:09:55.576Z,100972.81
2024-02-26T07:12:42.423Z,100972.78
2024-02-26T07:15:30.889Z,100971.06
2024-02-26T07:17:58.017Z,100978.91
2024-02-26T07:20:44.957Z,100978.00
2024-02-26T07:23:31.868Z,100975.38
2024-02-26T07:26:18.784Z,100965.03
2024-02-26T07:29:05.673Z,100944.25
2024-02-26T07:31:52.646Z,100974.44
2024-02-26T07:34:39.695Z,100975.34
2024-02-26T07:37:26.746Z,100984.97
2024-02-26T07:40:13.664Z,100992.00
2024-02-26T07:43:00.606Z,100996.38
2024-02-26T07:45:47.553Z,101001.59
2024-02-26T07:48:34.506Z,100973.84
2024-02-26T07:51:21.499Z,100996.31
2024-02-26T07:54:08.439Z,100991.91
2024-02-26T07:56:55.463Z,100998.88
2024-02-26T07:59:42.442Z,101001.50
2024-02-26T08:02:29.301Z,100990.97
2024-02-26T08:04:56.271Z,100987.50
2024-02-26T08:07:43.093Z,101004.97
2024-02-26T08:10:33.198Z,101007.56
2024-02-26T08:13:20.627Z,101011.91
2024-02-26T08:16:07.437Z,101014.53
2024-02-26T08:18:54.404Z,101015.41
2024-02-26T08:21:41.267Z,101018.88
2024-02-26T08:24:28.505Z,101023.22
2024-02-26T08:27:15.688Z,101023.22
2024-02-26T08:30:02.711Z,101023.19
2024-02-26T08:32:52.071Z,101018.78
2024-02-26T08:35:40.244Z,101026.69
2024-02-26T08:38:27.513Z,101028.38
2024-02-26T08:41:14.361Z,101032.72
2024-02-26T08:44:01.182Z,101036.22
2024-02-26T08:46:48.004Z,101033.56
2024-02-26T08:49:35.036Z,101040.56
2024-02-26T08:52:22.023Z,101039.66
2024-02-26T08:55:08.967Z,101033.50
2024-02-26T08:57:56.100Z,101043.06
2024-02-26T09:00:43.003Z,101043.91
2024-02-26T09:03:29.964Z,101050.88
2024-02-26T09:06:17.049Z,101050.84
2024-02-26T09:09:04.038Z,101050.03
2024-02-26T09:11:51.009Z,101063.94
2024-02-26T09:14:38.174Z,101069.22
2024-02-26T09:17:25.193Z,101071.75
2024-02-26T09:20:12.369Z,101071.72
2024-02-26T09:22:59.228Z,101056.03
2024-02-26T09:25:46.040Z,101069.03
2024-02-26T09:28:33.063Z,101068.97
2024-02-26T09:31:19.872Z,101061.16
2024-02-26T09:34:06.956Z,101067.13
2024-02-26T09:36:58.293Z,101070.59
2024-02-26T09:39:50.199Z,101073.19
2024-02-26T09:42:39.985Z,101081.97
2024-02-26T09:45:30.624Z,101056.75
2024-02-26T09:48:18.209Z,101083.66
2024-02-26T09:51:05.253Z,101078.38
2024-02-26T09:53:53.431Z,101079.25
2024-02-26T09:56:49.366Z,101081.81
2024-02-26T09:59:43.695Z,101070.44
2024-02-26T10:02:34.119Z,101059.06
2024-02-26T10:05:24.216Z,101077.34
2024-02-26T10:08:12.138Z,101075.56
2024-02-26T10:11:00.237Z,101072.91
2024-02-26T10:13:47.124Z,101078.16
2024-02-26T10:16:34.522Z,101080.75
2024-02-26T10:19:21.617Z,101081.59
2024-02-26T10:22:08.444Z,101085.91
2024-02-26T10:24:54.448Z,101074.66
2024-02-26T10:27:42.102Z,101093.69
2024-02-26T10:30:40.427Z,101088.38
2024-02-26T10:33:29.551Z,101099.75
2024-02-26T10:36:17.738Z,101105.88
2024-02-26T10:39:04.773Z,101092.69
2024-02-26T10:41:54.570Z,101089.16
2024-02-26T10:44:41.448Z,101091.81
2024-02-26T10:47:29.008Z,101087.38
2024-02-26T10:50:17.101Z,101091.75
2024-02-26T10:53:04.309Z,101085.63
2024-02-26T10:55:52.247Z,101086.47
2024-02-26T10:58:40.127Z,101053.44
2024-02-26T11:01:27.433Z,101086.47
2024-02-26T11:04:14.949Z,101091.72
2024-02-26T11:07:01.912Z,101094.31
2024-02-26T11:09:49.351Z,101098.66
2024-02-26T11:12:37.114Z,101097.78
2024-02-26T11:15:24.733Z,101092.50
2024-02-26T11:18:13.826Z,101083.69
2024-02-26T11:20:42.736Z,101081.28
2024-02-26T11:23:29.645Z,101091.50
2024-02-26T11:26:19.712Z,101094.13
2024-02-26T11:29:07.444Z,101087.97
2024-02-26T11:31:54.971Z,101092.31
2024-02-26T11:34:42.137Z,101101.94
2024-02-26T11:37:39.986Z,101100.16
2024-02-26T11:40:35.524Z,101096.63
2024-02-26T11:43:22.535Z,101091.41
2024-02-26T11:46:10.885Z,101103.53
2024-02-26T11:48:58.140Z,101097.34
2024-02-26T11:51:47.339Z,101082.66
2024-02-26T11:55:20.401Z,101096.44
2024-02-26T11:58:07.287Z,101109.53
2024-02-26T12:00:54.152Z,101104.22
2024-02-26T12:03:41.998Z,101102.38
2024-02-26T12:06:29.328Z,101104.09
2024-02-26T12:09:17.495Z,101100.56
2024-02-26T12:12:04.467Z,101100.53
2024-02-26T12:14:54.672Z,101105.75
2024-02-26T12:17:43.590Z,101108.34
2024-02-26T12:20:31.857Z,101104.81
2024-02-26T12:23:19.256Z,101095.22
2024-02-26T12:26:08.657Z,101110.00
2024-02-26T12:28:56.555Z,101112.59
2024-02-26T12:31:43.339Z,101090.75
2024-02-26T12:34:30.821Z,101105.50
2024-02-26T12:37:17.939Z,101102.84
2024-02-26T12:40:05.431Z,101110.72
2024-02-26T12:42:53.909Z,101105.41
2024-02-26T12:45:40.763Z,101108.91
2024-02-26T12:48:28.389Z,101107.97
2024-02-26T12:51:15.582Z,101102.69
2024-02-26T12:54:02.787Z,101107.06
2024-02-26T12:56:51.651Z,101112.31
2024-02-26T12:59:38.490Z,101112.31
2024-02-26T13:02:26.035Z,101105.34
2024-02-26T13:05:13.130Z,101112.34
2024-02-26T13:08:06.113Z,101097.72
2024-02-26T13:10:58.602Z,101108.88
2024-02-26T13:13:45.552Z,101117.59
2024-02-26T13:16:36.439Z,101094.94
2024-02-26T13:19:32.367Z,101119.19
2024-02-26T13:22:28.600Z,101097.44
2024-02-26T13:25:17.240Z,101108.44
2024-02-26T13:28:04.116Z,101106.56
2024-02-26T13:30:50.967Z,101101.19
2024-02-26T13:33:38.077Z,101108.16
2024-02-26T13:36:25.513Z,101102.81
2024-02-26T13:39:14.020Z,101104.34
2024-02-26T13:42:01.032Z,101104.00
2024-02-26T13:44:48.071Z,101104.66
2024-02-26T13:47:35.145Z,101092.19
2024-02-26T13:50:22.738Z,101099.97
2024-02-26T13:53:09.612Z,101104.38
2024-02-26T13:55:37.482Z,101103.66
2024-02-26T13:58:05.097Z,101113.25
2024-02-26T14:00:52.273Z,101108.13
2024-02-26T14:03:20.406Z,101117.00
2024-02-26T14:05:48.702Z,101110.06
2024-02-26T14:08:36.235Z,101112.84
2024-02-26T14:11:23.134Z,101112.09
2024-02-26T14:14:10.049Z,101113.06
2024-02-26T14:16:57.378Z,101103.72
2024-02-26T14:19:44.405Z,101123.88
2024-02-26T14:22:34.790Z,101138.94
2024-02-26T14:25:21.648Z,101144.31
2024-02-26T14:28:12.668Z,101148.81
2024-02-26T14:31:04.004Z,101141.03
2024-02-26T14:33:52.752Z,101149.88
2024-02-26T14:36:42.144Z,101145.56
2024-02-26T14:39:29.204Z,101141.28
2024-02-26T14:42:16.651Z,101124.97
2024-02-26T14:45:03.623Z,101141.53
2024-02-26T14:47:50.565Z,101148.59
2024-02-26T14:50:37.516Z,101152.16
2024-02-26T14:53:24.519Z,101155.72
2024-02-26T14:56:11.398Z,101151.44
2024-02-26T14:58:59.377Z,101154.09
2024-02-26T15:01:47.974Z,101157.72
2024-02-26T15:04:35.315Z,101156.91
2024-02-26T15:07:22.436Z,101159.59
2024-02-26T15:10:09.436Z,101162.25
2024-02-26T15:12:56.342Z,101150.13
2024-02-26T15:15:43.421Z,101159.78
2024-02-26T15:18:30.476Z,101141.72
2024-02-26T15:21:17.619Z,101180.09
2024-02-26T15:23:58.802Z,101181.00
2024-02-26T15:26:32.026Z,101171.44
2024-02-26T15:28:59.030Z,101177.59
2024-02-26T15:31:25.916Z,101180.28
2024-02-26T15:33:53.151Z,101188.22
2024-02-26T15:36:20.270Z,101176.06
2024-02-26T15:38:47.189Z,101186.56
2024-02-26T15:41:15.095Z,101199.75
2024-02-26T15:43:42.654Z,101189.25
2024-02-26T15:46:09.740Z,101191.09
2024-02-26T15:48:39.865Z,101200.75
2024-02-26T15:51:07.025Z,101202.53
2024-02-26T15:53:34.066Z,101192.94
2024-02-26T15:56:01.660Z,101174.72
2024-02-26T15:58:28.696Z,101197.41
2024-02-26T16:00:56.807Z,101205.31
2024-02-26T16:03:26.354Z,101218.53
2024-02-26T16:05:53.888Z,101212.41
2024-02-26T16:08:43.288Z,101217.72
2024-02-26T16:11:30.163Z,101214.25
2024-02-26T16:14:34.452Z,101223.97
2024-02-26T16:17:39.402Z,101223.13
2024-02-26T16:20:27.695Z,101193.75
2024-02-26T16:23:14.609Z,101219.72
2024-02-26T16:26:01.474Z,101221.53
2024-02-26T16:28:48.293Z,101217.22
2024-02-26T16:31:35.153Z,101219.06
2024-02-26T16:34:22.204Z,101227.84
2024-02-26T16:37:09.165Z,101227.06
2024-02-26T16:39:57.983Z,101232.38
2024-02-26T16:42:44.830Z,101235.13
2024-02-26T16:45:31.810Z,101248.28
2024-02-26T16:48:18.938Z,101247.50
2024-02-26T16:51:05.926Z,101252.81
2024-02-26T16:53:52.780Z,101258.13
2024-02-26T16:56:39.741Z,101255.53
2024-02-26T16:59:26.635Z,101258.22
2024-02-26T17:02:13.533Z,101241.81
2024-02-26T17:05:01.252Z,101274.94
2024-02-26T17:07:48.177Z,101275.88
2024-02-26T17:10:35.302Z,101269.78
2024-02-26T17:13:22.202Z,101286.47
2024-02-26T17:16:09.137Z,101287.38
2024-02-26T17:18:56.135Z,101292.69
2024-02-26T17:21:44.239Z,101291.88
2024-02-26T17:24:31.211Z,101296.25
2024-02-26T17:27:18.178Z,101295.44
2024-02-26T17:30:05.111Z,101294.59
2024-02-26T17:32:52.125Z,101291.22
2024-02-26T17:35:39.076Z,101299.09
2024-02-26T17:38:25.908Z,101293.88
2024-02-26T17:41:13.216Z,101303.56
2024-02-26T17:44:00.145Z,101307.09
2024-02-26T17:46:47.017Z,101307.97
2024-02-26T17:49:34.194Z,101317.69
2024-02-26T17:52:21.845Z,101313.31
2024-02-26T17:55:08.710Z,101312.47
2024-02-26T17:57:55.674Z,101319.53
2024-02-26T18:00:42.620Z,101326.56
2024-02-26T18:03:29.592Z,101320.44
2024-02-26T18:06:16.602Z,101328.38
2024-02-26T18:09:03.653Z,101345.91
2024-02-26T18:11:50.506Z,101333.69
2024-02-26T18:14:37.474Z,101338.97
2024-02-26T18:17:24.552Z,101339.00
2024-02-26T18:20:11.499Z,101340.78
2024-02-26T18:22:58.585Z,101338.22
2024-02-26T18:25:45.576Z,101340.00
2024-02-26T18:28:32.483Z,101328.72
2024-02-26T18:31:19.307Z,101339.16
2024-02-26T18:34:06.398Z,101321.81
2024-02-26T18:36:53.357Z,101346.22
2024-02-26T18:39:40.398Z,101350.63
2024-02-26T18:42:27.643Z,101350.66
2024-02-26T18:45:14.574Z,101353.28
2024-02-26T18:48:01.580Z,101356.78
2024-02-26T18:50:49.197Z,101353.31
2024-02-26T18:53:36.088Z,101357.75
2024-02-26T18:56:23.055Z,101363.84
2024-02-26T18:59:09.979Z,101356.91
2024-02-26T19:01:56.785Z,101368.28
2024-02-26T19:04:43.680Z,101369.16
2024-02-26T19:07:30.800Z,101367.47
2024-02-26T19:10:17.866Z,101370.06
2024-02-26T19:13:07.304Z,101336.16
2024-02-26T19:15:55.581Z,101369.22
2024-02-26T19:18:42.468Z,101376.25
2024-02-26T19:21:29.425Z,101359.75
2024-02-26T19:24:16.667Z,101380.66
2024-02-26T19:26:45.935Z,101392.88
2024-02-26T19:29:32.808Z,101388.53
2024-02-26T19:32:19.697Z,101385.94
2024-02-26T19:35:06.665Z,101388.56
2024-02-26T19:37:54.143Z,101389.44
2024-02-26T19:40:40.937Z,101388.59
2024-02-26T19:43:27.898Z,101390.34
2024-02-26T19:46:15.207Z,101393.84
2024-02-26T19:49:02.334Z,101394.72
2024-02-26T19:51:49.363Z,101402.59
2024-02-26T19:54:36.741Z,101398.25
2024-02-26T19:57:23.687Z,101404.38
2024-02-26T20:00:10.571Z,101410.47
2024-02-26T20:03:01.203Z,101406.13
2024-02-26T20:05:48.268Z,101407.00
2024-02-26T20:08:35.284Z,101417.50
2024-02-26T20:11:22.298Z,101418.38
2024-02-26T20:14:09.151Z,101417.50
2024-02-26T20:16:56.010Z,101414.91
2024-02-26T20:19:42.923Z,101421.03
2024-02-26T20:22:31.832Z,101410.56
2024-02-26T20:25:18.702Z,101408.84
2024-02-26T20:28:05.516Z,101424.56
2024-02-26T20:30:52.456Z,101425.44
2024-02-26T20:33:39.564Z,101428.94
2024-02-26T20:36:26.939Z,101430.69
2024-02-26T20:39:13.800Z,101436.81
2024-02-26T20:42:00.690Z,101439.44
2024-02-26T20:44:47.701Z,101442.91
2024-02-26T20:47:35.982Z,101451.66
2024-02-26T20:50:22.923Z,101442.91
2024-02-26T20:53:13.683Z,101450.78
2024-02-26T20:56:00.976Z,101455.16
2024-02-26T20:58:47.823Z,101456.03
2024-02-26T21:01:34.675Z,101463.88
2024-02-26T21:04:24.506Z,101466.50
2024-02-26T21:07:11.961Z,101458.66
2024-02-26T21:09:58.886Z,101468.28
2024-02-26T21:12:46.186Z,101469.13
2024-02-26T21:15:33.128Z,101470.03
2024-02-26T21:18:20.170Z,101470.88
2024-02-26T21:21:07.151Z,101472.66
2024-02-26T21:23:54.154Z,101472.66
2024-02-26T21:26:41.027Z,101464.81
2024-02-26T21:29:27.922Z,101471.75
2024-02-26T21:32:14.776Z,101468.25
2024-02-26T21:35:02.045Z,101471.78
2024-02-26T21:37:48.987Z,101468.28
2024-02-26T21:40:35.827Z,101484.84
2024-02-26T21:43:22.698Z,101478.75
2024-02-26T21:46:09.484Z,101481.34
2024-02-26T21:48:56.668Z,101456.09
2024-02-26T21:51:43.778Z,101474.38
2024-02-26T21:54:32.126Z,101473.50
2024-02-26T21:57:19.214Z,101470.03
2024-02-26T22:00:07.727Z,101469.16
2024-02-26T22:03:00.469Z,101465.66
2024-02-26T22:05:47.491Z,101475.25
2024-02-26T22:08:34.617Z,101483.09
2024-02-26T22:11:21.497Z,101489.19
2024-02-26T22:14:08.462Z,101499.66
2024-02-26T22:16:55.339Z,101496.16
2024-02-26T22:19:42.347Z,101499.66
2024-02-26T22:22:30.492Z,101504.00
2024-02-26T22:25:17.376Z,101496.16
2024-02-26T22:28:04.684Z,101498.75
2024-02-26T22:30:51.500Z,101503.13
2024-02-26T22:33:38.529Z,101502.25
2024-02-26T22:36:26.007Z,101509.22
2024-02-26T22:39:12.858Z,101498.75
2024-02-26T22:42:03.154Z,101500.47
2024-02-26T22:44:50.088Z,101506.59
2024-02-26T22:47:37.020Z,101508.31
2024-02-26T22:50:24.182Z,101504.84
2024-02-26T22:53:11.154Z,101512.69
2024-02-26T22:55:58.143Z,101518.75
2024-02-26T22:58:44.970Z,101518.75
2024-02-26T23:01:31.799Z,101516.13
2024-02-26T23:04:18.670Z,101522.25
2024-02-26T23:07:05.570Z,101514.38
2024-02-26T23:09:52.475Z,101522.22
2024-02-26T23:12:39.441Z,101527.44
2024-02-26T23:15:26.472Z,101514.34
2024-02-26T23:18:16.778Z,101530.94
2024-02-26T23:21:03.897Z,101523.09
2024-02-26T23:23:50.948Z,101537.88
2024-02-26T23:26:37.828Z,101543.97
2024-02-26T23:29:24.699Z,101532.63
2024-02-26T23:32:11.549Z,101539.59
2024-02-26T23:34:59.027Z,101553.53
2024-02-26T23:37:45.938Z,101527.38
2024-02-26T23:40:32.965Z,101531.72
2024-02-26T23:43:20.121Z,101541.31
2024-02-26T23:46:07.107Z,101543.06
2024-02-26T23:48:54.054Z,101536.94
2024-02-26T23:51:41.009Z,101543.88
2024-02-26T23:54:27.929Z,101547.38
2024-02-26T23:57:14.799Z,101549.09
